Ruston, Louisiana
Current Conditions -  °F | °C
As of 1:35 PM on Thursday 27 Nov 2014 (Local Time) from KRSN Reporting Station
Clear Clear  
Wind Chill: 53°   Ceiling: Unl
Heat Index: 53°   Visibility: 10mi
Dew Point: 30°   Wind: 7mph
Humidity: 40%   Direction: 50°NE
Pressure: 30.5"   Gusts: NA
Location:  32.53°N, 92.64°W
Report Text: KRSN 271935Z AUTO 05006KT 10SM CLR 12/M01 A3050 RMK AO2 T01191012
Loading
Personal Weather Stations






























Interactive Weather Map New forecast layout! Learn more

10-Day Weather Forecast

Advertisements
Track Severe Weather on mobile